sensor_id;sensor_type;location;lat;lon;timestamp;P1;durP1;ratioP1;P2;durP2;ratioP2
13374;SDS011;6756;51.354;15.754;2023-01-08T00:02:05;26.10;;;15.27;;
13374;SDS011;6756;51.354;15.754;2023-01-08T00:06:07;28.93;;;16.80;;
13374;SDS011;6756;51.354;15.754;2023-01-08T00:10:11;29.97;;;18.03;;
13374;SDS011;6756;51.354;15.754;2023-01-08T00:14:12;31.30;;;16.07;;
13374;SDS011;6756;51.354;15.754;2023-01-08T00:18:13;31.37;;;17.80;;
13374;SDS011;6756;51.354;15.754;2023-01-08T00:22:14;28.33;;;15.97;;
13374;SDS011;6756;51.354;15.754;2023-01-08T00:26:15;26.10;;;14.97;;
13374;SDS011;6756;51.354;15.754;2023-01-08T00:30:15;22.70;;;13.43;;
13374;SDS011;6756;51.354;15.754;2023-01-08T00:34:16;27.73;;;15.20;;
13374;SDS011;6756;51.354;15.754;2023-01-08T00:38:17;27.13;;;13.93;;
13374;SDS011;6756;51.354;15.754;2023-01-08T00:42:18;23.20;;;13.67;;
13374;SDS011;6756;51.354;15.754;2023-01-08T00:46:19;23.27;;;13.10;;
13374;SDS011;6756;51.354;15.754;2023-01-08T00:50:19;22.67;;;13.63;;
13374;SDS011;6756;51.354;15.754;2023-01-08T00:54:20;26.33;;;14.43;;
13374;SDS011;6756;51.354;15.754;2023-01-08T00:58:21;33.03;;;19.40;;
13374;SDS011;6756;51.354;15.754;2023-01-08T01:02:22;39.17;;;20.47;;
13374;SDS011;6756;51.354;15.754;2023-01-08T01:06:23;27.97;;;17.40;;
13374;SDS011;6756;51.354;15.754;2023-01-08T01:10:24;33.13;;;19.73;;
13374;SDS011;6756;51.354;15.754;2023-01-08T01:14:24;33.63;;;19.80;;
13374;SDS011;6756;51.354;15.754;2023-01-08T01:18:25;30.90;;;18.23;;
13374;SDS011;6756;51.354;15.754;2023-01-08T01:22:26;29.67;;;17.47;;
13374;SDS011;6756;51.354;15.754;2023-01-08T01:26:27;42.47;;;22.43;;
13374;SDS011;6756;51.354;15.754;2023-01-08T01:30:28;36.63;;;21.33;;
13374;SDS011;6756;51.354;15.754;2023-01-08T01:34:29;32.37;;;18.73;;
13374;SDS011;6756;51.354;15.754;2023-01-08T01:38:30;31.10;;;17.40;;
13374;SDS011;6756;51.354;15.754;2023-01-08T01:42:31;32.40;;;18.27;;
13374;SDS011;6756;51.354;15.754;2023-01-08T01:46:40;33.40;;;18.77;;
13374;SDS011;6756;51.354;15.754;2023-01-08T01:50:43;37.63;;;20.67;;
13374;SDS011;6756;51.354;15.754;2023-01-08T01:54:46;39.80;;;22.53;;
13374;SDS011;6756;51.354;15.754;2023-01-08T01:58:49;34.70;;;20.30;;
13374;SDS011;6756;51.354;15.754;2023-01-08T02:02:50;33.50;;;18.70;;
13374;SDS011;6756;51.354;15.754;2023-01-08T02:07:00;33.33;;;17.90;;
13374;SDS011;6756;51.354;15.754;2023-01-08T02:11:10;31.80;;;17.83;;
13374;SDS011;6756;51.354;15.754;2023-01-08T02:15:17;29.23;;;16.70;;
13374;SDS011;6756;51.354;15.754;2023-01-08T02:19:35;32.37;;;18.07;;
13374;SDS011;6756;51.354;15.754;2023-01-08T02:28:21;28.50;;;16.97;;
13374;SDS011;6756;51.354;15.754;2023-01-08T02:32:26;33.73;;;18.90;;
13374;SDS011;6756;51.354;15.754;2023-01-08T02:44:57;36.90;;;21.33;;
13374;SDS011;6756;51.354;15.754;2023-01-08T02:49:06;49.23;;;26.10;;
13374;SDS011;6756;51.354;15.754;2023-01-08T02:53:10;52.93;;;28.53;;
13374;SDS011;6756;51.354;15.754;2023-01-08T02:57:13;44.27;;;24.80;;
13374;SDS011;6756;51.354;15.754;2023-01-08T03:01:15;44.80;;;24.27;;
13374;SDS011;6756;51.354;15.754;2023-01-08T03:05:20;42.83;;;23.80;;
13374;SDS011;6756;51.354;15.754;2023-01-08T03:09:24;33.67;;;19.70;;
13374;SDS011;6756;51.354;15.754;2023-01-08T03:13:26;40.57;;;21.67;;
13374;SDS011;6756;51.354;15.754;2023-01-08T03:17:34;45.97;;;24.63;;
13374;SDS011;6756;51.354;15.754;2023-01-08T03:21:39;39.03;;;24.03;;
13374;SDS011;6756;51.354;15.754;2023-01-08T03:25:42;46.80;;;24.27;;
13374;SDS011;6756;51.354;15.754;2023-01-08T03:29:46;36.03;;;20.70;;
13374;SDS011;6756;51.354;15.754;2023-01-08T03:33:50;39.83;;;21.33;;
13374;SDS011;6756;51.354;15.754;2023-01-08T03:38:02;34.23;;;19.10;;
13374;SDS011;6756;51.354;15.754;2023-01-08T03:42:08;47.17;;;27.20;;
13374;SDS011;6756;51.354;15.754;2023-01-08T03:46:13;53.73;;;28.20;;
13374;SDS011;6756;51.354;15.754;2023-01-08T03:50:19;47.23;;;26.67;;
13374;SDS011;6756;51.354;15.754;2023-01-08T03:54:23;53.73;;;26.70;;
13374;SDS011;6756;51.354;15.754;2023-01-08T03:58:28;44.73;;;25.37;;
13374;SDS011;6756;51.354;15.754;2023-01-08T04:02:29;48.37;;;26.97;;
13374;SDS011;6756;51.354;15.754;2023-01-08T04:06:30;46.73;;;24.77;;
13374;SDS011;6756;51.354;15.754;2023-01-08T04:10:31;41.37;;;22.43;;
13374;SDS011;6756;51.354;15.754;2023-01-08T04:14:32;36.30;;;19.13;;
13374;SDS011;6756;51.354;15.754;2023-01-08T04:18:33;50.10;;;27.87;;
13374;SDS011;6756;51.354;15.754;2023-01-08T04:22:34;46.93;;;25.50;;
13374;SDS011;6756;51.354;15.754;2023-01-08T04:26:35;45.30;;;25.60;;
13374;SDS011;6756;51.354;15.754;2023-01-08T04:30:36;48.60;;;26.07;;
13374;SDS011;6756;51.354;15.754;2023-01-08T04:34:37;41.57;;;25.07;;
13374;SDS011;6756;51.354;15.754;2023-01-08T04:38:37;58.67;;;29.10;;
13374;SDS011;6756;51.354;15.754;2023-01-08T04:42:38;59.67;;;33.80;;
13374;SDS011;6756;51.354;15.754;2023-01-08T04:46:39;71.43;;;36.70;;
13374;SDS011;6756;51.354;15.754;2023-01-08T04:50:40;44.67;;;24.87;;
13374;SDS011;6756;51.354;15.754;2023-01-08T04:54:41;42.27;;;22.30;;
13374;SDS011;6756;51.354;15.754;2023-01-08T04:58:41;43.20;;;24.70;;
13374;SDS011;6756;51.354;15.754;2023-01-08T05:02:42;42.73;;;23.63;;
13374;SDS011;6756;51.354;15.754;2023-01-08T05:06:43;47.77;;;25.50;;
13374;SDS011;6756;51.354;15.754;2023-01-08T05:10:44;42.60;;;24.60;;
13374;SDS011;6756;51.354;15.754;2023-01-08T05:14:44;44.83;;;22.97;;
13374;SDS011;6756;51.354;15.754;2023-01-08T05:18:45;44.77;;;26.37;;
13374;SDS011;6756;51.354;15.754;2023-01-08T05:22:46;47.50;;;27.03;;
13374;SDS011;6756;51.354;15.754;2023-01-08T05:26:47;53.23;;;31.07;;
13374;SDS011;6756;51.354;15.754;2023-01-08T05:30:48;72.27;;;39.07;;
13374;SDS011;6756;51.354;15.754;2023-01-08T05:34:49;108.77;;;52.87;;
13374;SDS011;6756;51.354;15.754;2023-01-08T05:38:50;77.20;;;40.10;;
13374;SDS011;6756;51.354;15.754;2023-01-08T05:42:51;65.60;;;34.70;;
13374;SDS011;6756;51.354;15.754;2023-01-08T05:46:52;47.23;;;25.67;;
13374;SDS011;6756;51.354;15.754;2023-01-08T05:50:53;34.27;;;19.67;;
13374;SDS011;6756;51.354;15.754;2023-01-08T05:54:54;28.50;;;16.17;;
13374;SDS011;6756;51.354;15.754;2023-01-08T05:58:55;27.87;;;16.23;;
13374;SDS011;6756;51.354;15.754;2023-01-08T06:02:56;25.07;;;14.90;;
13374;SDS011;6756;51.354;15.754;2023-01-08T06:06:56;35.87;;;18.57;;
13374;SDS011;6756;51.354;15.754;2023-01-08T06:11:01;40.23;;;20.67;;
13374;SDS011;6756;51.354;15.754;2023-01-08T06:15:04;56.80;;;31.47;;
13374;SDS011;6756;51.354;15.754;2023-01-08T06:19:07;51.67;;;29.43;;
13374;SDS011;6756;51.354;15.754;2023-01-08T06:23:09;43.10;;;24.60;;
13374;SDS011;6756;51.354;15.754;2023-01-08T06:27:09;36.57;;;20.50;;
13374;SDS011;6756;51.354;15.754;2023-01-08T06:31:10;33.00;;;18.60;;
13374;SDS011;6756;51.354;15.754;2023-01-08T06:35:11;35.03;;;18.80;;
13374;SDS011;6756;51.354;15.754;2023-01-08T06:39:12;31.87;;;18.07;;
13374;SDS011;6756;51.354;15.754;2023-01-08T06:43:12;34.53;;;19.67;;
13374;SDS011;6756;51.354;15.754;2023-01-08T06:47:13;34.43;;;18.53;;
13374;SDS011;6756;51.354;15.754;2023-01-08T06:51:14;24.40;;;14.10;;
13374;SDS011;6756;51.354;15.754;2023-01-08T06:55:15;66.33;;;30.53;;
13374;SDS011;6756;51.354;15.754;2023-01-08T06:59:16;43.70;;;24.23;;
13374;SDS011;6756;51.354;15.754;2023-01-08T07:03:16;52.37;;;28.27;;
13374;SDS011;6756;51.354;15.754;2023-01-08T07:07:17;76.77;;;45.07;;
13374;SDS011;6756;51.354;15.754;2023-01-08T07:11:18;55.40;;;32.47;;
13374;SDS011;6756;51.354;15.754;2023-01-08T07:15:19;47.27;;;27.03;;
13374;SDS011;6756;51.354;15.754;2023-01-08T07:19:20;37.17;;;22.17;;
13374;SDS011;6756;51.354;15.754;2023-01-08T07:23:20;42.37;;;24.10;;
13374;SDS011;6756;51.354;15.754;2023-01-08T07:27:21;43.63;;;26.20;;
13374;SDS011;6756;51.354;15.754;2023-01-08T07:31:22;99.97;;;49.00;;
13374;SDS011;6756;51.354;15.754;2023-01-08T07:35:23;156.77;;;76.30;;
13374;SDS011;6756;51.354;15.754;2023-01-08T07:39:24;201.57;;;101.77;;
13374;SDS011;6756;51.354;15.754;2023-01-08T07:43:24;366.80;;;154.77;;
13374;SDS011;6756;51.354;15.754;2023-01-08T07:47:25;173.87;;;78.77;;
13374;SDS011;6756;51.354;15.754;2023-01-08T07:51:26;62.73;;;33.10;;
13374;SDS011;6756;51.354;15.754;2023-01-08T07:55:29;62.43;;;34.97;;
13374;SDS011;6756;51.354;15.754;2023-01-08T07:59:30;60.20;;;31.97;;
13374;SDS011;6756;51.354;15.754;2023-01-08T08:03:31;126.87;;;54.17;;
13374;SDS011;6756;51.354;15.754;2023-01-08T08:07:32;143.90;;;59.63;;
13374;SDS011;6756;51.354;15.754;2023-01-08T08:11:33;126.27;;;56.40;;
13374;SDS011;6756;51.354;15.754;2023-01-08T08:15:34;95.93;;;43.70;;
13374;SDS011;6756;51.354;15.754;2023-01-08T08:19:36;77.73;;;41.07;;
13374;SDS011;6756;51.354;15.754;2023-01-08T08:23:36;93.80;;;46.27;;
13374;SDS011;6756;51.354;15.754;2023-01-08T08:27:37;91.93;;;44.80;;
13374;SDS011;6756;51.354;15.754;2023-01-08T08:31:38;140.37;;;69.90;;
13374;SDS011;6756;51.354;15.754;2023-01-08T08:35:39;200.67;;;92.27;;
13374;SDS011;6756;51.354;15.754;2023-01-08T08:39:40;322.03;;;133.43;;
13374;SDS011;6756;51.354;15.754;2023-01-08T08:43:41;228.27;;;107.57;;
13374;SDS011;6756;51.354;15.754;2023-01-08T08:47:42;178.50;;;90.53;;
13374;SDS011;6756;51.354;15.754;2023-01-08T08:51:43;169.03;;;84.27;;
13374;SDS011;6756;51.354;15.754;2023-01-08T08:55:44;180.80;;;94.30;;
13374;SDS011;6756;51.354;15.754;2023-01-08T08:59:45;194.97;;;95.17;;
13374;SDS011;6756;51.354;15.754;2023-01-08T09:03:45;192.87;;;97.73;;
13374;SDS011;6756;51.354;15.754;2023-01-08T09:07:46;229.57;;;110.67;;
13374;SDS011;6756;51.354;15.754;2023-01-08T09:11:47;233.10;;;114.30;;
13374;SDS011;6756;51.354;15.754;2023-01-08T09:15:48;221.77;;;107.87;;
13374;SDS011;6756;51.354;15.754;2023-01-08T09:19:49;166.13;;;80.73;;
13374;SDS011;6756;51.354;15.754;2023-01-08T09:23:50;137.63;;;71.27;;
13374;SDS011;6756;51.354;15.754;2023-01-08T09:28:00;125.63;;;64.77;;
13374;SDS011;6756;51.354;15.754;2023-01-08T09:32:06;141.00;;;70.43;;
13374;SDS011;6756;51.354;15.754;2023-01-08T09:36:09;132.70;;;70.40;;
13374;SDS011;6756;51.354;15.754;2023-01-08T09:40:13;126.63;;;66.40;;
13374;SDS011;6756;51.354;15.754;2023-01-08T09:44:17;127.13;;;67.53;;
13374;SDS011;6756;51.354;15.754;2023-01-08T09:48:28;142.23;;;70.60;;
13374;SDS011;6756;51.354;15.754;2023-01-08T09:52:33;140.33;;;74.53;;
13374;SDS011;6756;51.354;15.754;2023-01-08T09:56:34;208.57;;;112.70;;
13374;SDS011;6756;51.354;15.754;2023-01-08T10:00:39;230.03;;;128.83;;
13374;SDS011;6756;51.354;15.754;2023-01-08T10:04:39;185.03;;;106.27;;
13374;SDS011;6756;51.354;15.754;2023-01-08T10:08:42;182.13;;;104.60;;
13374;SDS011;6756;51.354;15.754;2023-01-08T10:12:43;169.60;;;98.43;;
13374;SDS011;6756;51.354;15.754;2023-01-08T10:16:45;328.30;;;186.97;;
13374;SDS011;6756;51.354;15.754;2023-01-08T10:20:48;367.47;;;205.50;;
13374;SDS011;6756;51.354;15.754;2023-01-08T10:24:49;338.07;;;192.33;;
13374;SDS011;6756;51.354;15.754;2023-01-08T10:28:50;317.37;;;180.57;;
13374;SDS011;6756;51.354;15.754;2023-01-08T10:32:52;339.93;;;213.27;;
13374;SDS011;6756;51.354;15.754;2023-01-08T10:36:55;282.77;;;176.67;;
13374;SDS011;6756;51.354;15.754;2023-01-08T10:40:56;269.37;;;164.17;;
13374;SDS011;6756;51.354;15.754;2023-01-08T10:44:59;255.60;;;157.90;;
13374;SDS011;6756;51.354;15.754;2023-01-08T10:49:04;299.93;;;192.07;;
13374;SDS011;6756;51.354;15.754;2023-01-08T10:53:20;267.90;;;170.47;;
13374;SDS011;6756;51.354;15.754;2023-01-08T10:57:28;259.73;;;170.03;;
13374;SDS011;6756;51.354;15.754;2023-01-08T11:01:30;235.90;;;147.50;;
13374;SDS011;6756;51.354;15.754;2023-01-08T11:05:35;282.90;;;150.17;;
13374;SDS011;6756;51.354;15.754;2023-01-08T11:09:45;214.60;;;121.33;;
13374;SDS011;6756;51.354;15.754;2023-01-08T11:13:57;178.20;;;105.77;;
13374;SDS011;6756;51.354;15.754;2023-01-08T11:18:04;150.87;;;95.03;;
13374;SDS011;6756;51.354;15.754;2023-01-08T11:22:23;156.20;;;97.50;;
13374;SDS011;6756;51.354;15.754;2023-01-08T11:26:24;171.17;;;104.30;;
13374;SDS011;6756;51.354;15.754;2023-01-08T11:30:26;166.17;;;100.50;;
13374;SDS011;6756;51.354;15.754;2023-01-08T11:38:51;148.43;;;83.83;;
13374;SDS011;6756;51.354;15.754;2023-01-08T11:42:55;135.13;;;84.00;;
13374;SDS011;6756;51.354;15.754;2023-01-08T11:51:28;126.40;;;78.40;;
13374;SDS011;6756;51.354;15.754;2023-01-08T12:04:56;68.10;;;41.40;;
13374;SDS011;6756;51.354;15.754;2023-01-08T12:09:18;84.10;;;46.70;;
13374;SDS011;6756;51.354;15.754;2023-01-08T12:13:52;84.97;;;51.87;;
13374;SDS011;6756;51.354;15.754;2023-01-08T12:22:42;82.83;;;54.43;;
13374;SDS011;6756;51.354;15.754;2023-01-08T12:31:37;85.60;;;58.23;;
13374;SDS011;6756;51.354;15.754;2023-01-08T12:36:10;83.20;;;56.10;;
13374;SDS011;6756;51.354;15.754;2023-01-08T12:40:24;86.10;;;57.20;;
13374;SDS011;6756;51.354;15.754;2023-01-08T12:44:30;83.70;;;52.93;;
13374;SDS011;6756;51.354;15.754;2023-01-08T12:48:32;97.60;;;59.03;;
13374;SDS011;6756;51.354;15.754;2023-01-08T12:52:48;103.57;;;63.57;;
13374;SDS011;6756;51.354;15.754;2023-01-08T12:57:04;123.77;;;67.57;;
13374;SDS011;6756;51.354;15.754;2023-01-08T13:05:35;176.67;;;98.33;;
13374;SDS011;6756;51.354;15.754;2023-01-08T13:09:37;202.87;;;107.93;;
13374;SDS011;6756;51.354;15.754;2023-01-08T13:13:39;182.10;;;98.13;;
13374;SDS011;6756;51.354;15.754;2023-01-08T13:17:46;160.97;;;88.13;;
13374;SDS011;6756;51.354;15.754;2023-01-08T13:21:52;126.47;;;66.77;;
13374;SDS011;6756;51.354;15.754;2023-01-08T13:25:56;81.70;;;52.87;;
13374;SDS011;6756;51.354;15.754;2023-01-08T13:29:59;81.83;;;53.87;;
13374;SDS011;6756;51.354;15.754;2023-01-08T13:34:01;87.27;;;53.63;;
13374;SDS011;6756;51.354;15.754;2023-01-08T13:38:18;100.10;;;61.43;;
13374;SDS011;6756;51.354;15.754;2023-01-08T13:42:24;95.57;;;58.23;;
13374;SDS011;6756;51.354;15.754;2023-01-08T13:46:27;77.57;;;52.83;;
13374;SDS011;6756;51.354;15.754;2023-01-08T13:50:29;87.17;;;56.43;;
13374;SDS011;6756;51.354;15.754;2023-01-08T13:54:38;85.27;;;58.37;;
13374;SDS011;6756;51.354;15.754;2023-01-08T13:58:43;81.57;;;51.80;;
13374;SDS011;6756;51.354;15.754;2023-01-08T14:02:50;61.70;;;42.87;;
13374;SDS011;6756;51.354;15.754;2023-01-08T14:07:03;56.37;;;39.80;;
13374;SDS011;6756;51.354;15.754;2023-01-08T14:11:11;57.70;;;37.70;;
13374;SDS011;6756;51.354;15.754;2023-01-08T14:15:19;49.60;;;33.73;;
13374;SDS011;6756;51.354;15.754;2023-01-08T14:19:25;46.53;;;33.33;;
13374;SDS011;6756;51.354;15.754;2023-01-08T14:23:28;52.70;;;35.87;;
13374;SDS011;6756;51.354;15.754;2023-01-08T14:27:33;57.60;;;38.47;;
13374;SDS011;6756;51.354;15.754;2023-01-08T14:31:34;60.80;;;40.40;;
13374;SDS011;6756;51.354;15.754;2023-01-08T14:35:35;61.67;;;42.50;;
13374;SDS011;6756;51.354;15.754;2023-01-08T14:39:36;59.40;;;40.73;;
13374;SDS011;6756;51.354;15.754;2023-01-08T14:43:38;65.77;;;42.80;;
13374;SDS011;6756;51.354;15.754;2023-01-08T14:47:44;67.63;;;45.40;;
13374;SDS011;6756;51.354;15.754;2023-01-08T14:51:50;70.00;;;49.03;;
13374;SDS011;6756;51.354;15.754;2023-01-08T14:55:52;74.40;;;46.57;;
13374;SDS011;6756;51.354;15.754;2023-01-08T14:59:56;74.13;;;49.47;;
13374;SDS011;6756;51.354;15.754;2023-01-08T15:04:06;145.97;;;90.30;;
13374;SDS011;6756;51.354;15.754;2023-01-08T15:12:41;105.43;;;65.97;;
13374;SDS011;6756;51.354;15.754;2023-01-08T15:16:42;91.43;;;55.63;;
13374;SDS011;6756;51.354;15.754;2023-01-08T15:20:43;75.30;;;48.43;;
13374;SDS011;6756;51.354;15.754;2023-01-08T15:24:50;78.07;;;50.83;;
13374;SDS011;6756;51.354;15.754;2023-01-08T15:29:00;77.57;;;49.60;;
13374;SDS011;6756;51.354;15.754;2023-01-08T15:33:15;74.80;;;48.60;;
13374;SDS011;6756;51.354;15.754;2023-01-08T15:37:22;68.53;;;42.77;;
13374;SDS011;6756;51.354;15.754;2023-01-08T15:41:22;61.80;;;41.20;;
13374;SDS011;6756;51.354;15.754;2023-01-08T15:45:43;75.03;;;46.03;;
13374;SDS011;6756;51.354;15.754;2023-01-08T15:49:45;75.20;;;45.50;;
13374;SDS011;6756;51.354;15.754;2023-01-08T15:53:46;75.87;;;47.07;;
13374;SDS011;6756;51.354;15.754;2023-01-08T15:57:47;64.47;;;39.53;;
13374;SDS011;6756;51.354;15.754;2023-01-08T16:01:49;84.10;;;57.27;;
13374;SDS011;6756;51.354;15.754;2023-01-08T16:05:50;71.93;;;49.07;;
13374;SDS011;6756;51.354;15.754;2023-01-08T16:09:51;66.13;;;43.83;;
13374;SDS011;6756;51.354;15.754;2023-01-08T16:13:51;55.93;;;37.70;;
13374;SDS011;6756;51.354;15.754;2023-01-08T16:17:53;42.90;;;29.63;;
13374;SDS011;6756;51.354;15.754;2023-01-08T16:21:54;31.90;;;21.60;;
13374;SDS011;6756;51.354;15.754;2023-01-08T16:25:55;30.17;;;18.10;;
13374;SDS011;6756;51.354;15.754;2023-01-08T16:29:56;56.70;;;27.57;;
13374;SDS011;6756;51.354;15.754;2023-01-08T16:34:01;40.50;;;22.03;;
13374;SDS011;6756;51.354;15.754;2023-01-08T16:38:03;33.37;;;20.70;;
13374;SDS011;6756;51.354;15.754;2023-01-08T16:42:04;28.70;;;19.87;;
13374;SDS011;6756;51.354;15.754;2023-01-08T16:46:09;29.50;;;19.57;;
13374;SDS011;6756;51.354;15.754;2023-01-08T16:50:11;33.07;;;18.90;;
13374;SDS011;6756;51.354;15.754;2023-01-08T16:54:13;56.43;;;34.83;;
13374;SDS011;6756;51.354;15.754;2023-01-08T16:58:14;100.33;;;53.97;;
13374;SDS011;6756;51.354;15.754;2023-01-08T17:02:15;107.60;;;58.50;;
13374;SDS011;6756;51.354;15.754;2023-01-08T17:06:18;68.63;;;39.67;;
13374;SDS011;6756;51.354;15.754;2023-01-08T17:10:20;45.60;;;26.63;;
13374;SDS011;6756;51.354;15.754;2023-01-08T17:14:21;32.33;;;21.13;;
13374;SDS011;6756;51.354;15.754;2023-01-08T17:18:22;27.63;;;18.27;;
13374;SDS011;6756;51.354;15.754;2023-01-08T17:22:23;25.50;;;16.20;;
13374;SDS011;6756;51.354;15.754;2023-01-08T17:26:24;23.43;;;15.27;;
13374;SDS011;6756;51.354;15.754;2023-01-08T17:30:27;25.37;;;15.57;;
13374;SDS011;6756;51.354;15.754;2023-01-08T17:34:27;20.10;;;13.63;;
13374;SDS011;6756;51.354;15.754;2023-01-08T17:38:28;68.37;;;37.10;;
13374;SDS011;6756;51.354;15.754;2023-01-08T17:42:29;138.70;;;73.73;;
13374;SDS011;6756;51.354;15.754;2023-01-08T17:46:35;113.03;;;61.97;;
13374;SDS011;6756;51.354;15.754;2023-01-08T17:50:41;81.50;;;45.77;;
13374;SDS011;6756;51.354;15.754;2023-01-08T17:54:41;33.97;;;21.97;;
13374;SDS011;6756;51.354;15.754;2023-01-08T17:58:42;28.40;;;17.80;;
13374;SDS011;6756;51.354;15.754;2023-01-08T18:02:44;25.90;;;16.47;;
13374;SDS011;6756;51.354;15.754;2023-01-08T18:06:45;23.20;;;15.23;;
13374;SDS011;6756;51.354;15.754;2023-01-08T18:10:46;121.13;;;66.53;;
13374;SDS011;6756;51.354;15.754;2023-01-08T18:14:47;175.37;;;92.07;;
13374;SDS011;6756;51.354;15.754;2023-01-08T18:18:48;134.70;;;73.37;;
13374;SDS011;6756;51.354;15.754;2023-01-08T18:22:49;104.47;;;57.63;;
13374;SDS011;6756;51.354;15.754;2023-01-08T18:26:52;72.00;;;40.00;;
13374;SDS011;6756;51.354;15.754;2023-01-08T18:30:53;47.33;;;27.83;;
13374;SDS011;6756;51.354;15.754;2023-01-08T18:34:54;128.13;;;69.87;;
13374;SDS011;6756;51.354;15.754;2023-01-08T18:38:55;144.43;;;81.67;;
13374;SDS011;6756;51.354;15.754;2023-01-08T18:42:56;121.97;;;71.00;;
13374;SDS011;6756;51.354;15.754;2023-01-08T18:46:57;51.67;;;30.30;;
13374;SDS011;6756;51.354;15.754;2023-01-08T18:50:59;43.77;;;26.93;;
13374;SDS011;6756;51.354;15.754;2023-01-08T18:55:04;22.27;;;14.67;;
13374;SDS011;6756;51.354;15.754;2023-01-08T18:59:06;18.70;;;12.00;;
13374;SDS011;6756;51.354;15.754;2023-01-08T19:03:07;30.83;;;19.47;;
13374;SDS011;6756;51.354;15.754;2023-01-08T19:07:09;18.50;;;11.43;;
13374;SDS011;6756;51.354;15.754;2023-01-08T19:11:10;10.83;;;6.90;;
13374;SDS011;6756;51.354;15.754;2023-01-08T19:15:12;8.03;;;6.03;;
13374;SDS011;6756;51.354;15.754;2023-01-08T19:19:13;12.23;;;7.50;;
13374;SDS011;6756;51.354;15.754;2023-01-08T19:23:14;12.57;;;8.07;;
13374;SDS011;6756;51.354;15.754;2023-01-08T19:27:15;11.63;;;7.93;;
13374;SDS011;6756;51.354;15.754;2023-01-08T19:31:16;17.13;;;10.37;;
13374;SDS011;6756;51.354;15.754;2023-01-08T19:35:17;15.93;;;10.47;;
13374;SDS011;6756;51.354;15.754;2023-01-08T19:39:19;18.40;;;12.10;;
13374;SDS011;6756;51.354;15.754;2023-01-08T19:43:21;18.17;;;11.80;;
13374;SDS011;6756;51.354;15.754;2023-01-08T19:47:40;19.70;;;12.17;;
13374;SDS011;6756;51.354;15.754;2023-01-08T19:51:41;18.10;;;12.50;;
13374;SDS011;6756;51.354;15.754;2023-01-08T19:55:42;16.87;;;11.67;;
13374;SDS011;6756;51.354;15.754;2023-01-08T19:59:44;19.90;;;11.77;;
13374;SDS011;6756;51.354;15.754;2023-01-08T20:03:45;21.10;;;13.13;;
13374;SDS011;6756;51.354;15.754;2023-01-08T20:07:50;20.83;;;12.93;;
13374;SDS011;6756;51.354;15.754;2023-01-08T20:11:51;22.77;;;12.70;;
13374;SDS011;6756;51.354;15.754;2023-01-08T20:15:55;16.83;;;11.43;;
13374;SDS011;6756;51.354;15.754;2023-01-08T20:19:56;24.17;;;15.63;;
13374;SDS011;6756;51.354;15.754;2023-01-08T20:24:01;61.13;;;36.10;;
13374;SDS011;6756;51.354;15.754;2023-01-08T20:28:08;52.83;;;31.73;;
13374;SDS011;6756;51.354;15.754;2023-01-08T20:32:09;40.67;;;24.73;;
13374;SDS011;6756;51.354;15.754;2023-01-08T20:36:12;23.27;;;15.27;;
13374;SDS011;6756;51.354;15.754;2023-01-08T20:40:15;16.20;;;10.63;;
13374;SDS011;6756;51.354;15.754;2023-01-08T20:44:16;16.37;;;9.70;;
13374;SDS011;6756;51.354;15.754;2023-01-08T20:48:17;13.20;;;9.10;;
13374;SDS011;6756;51.354;15.754;2023-01-08T20:52:19;13.87;;;9.50;;
13374;SDS011;6756;51.354;15.754;2023-01-08T20:56:20;16.27;;;10.10;;
13374;SDS011;6756;51.354;15.754;2023-01-08T21:00:21;19.07;;;10.93;;
13374;SDS011;6756;51.354;15.754;2023-01-08T21:04:24;17.27;;;11.27;;
13374;SDS011;6756;51.354;15.754;2023-01-08T21:08:26;25.57;;;14.73;;
13374;SDS011;6756;51.354;15.754;2023-01-08T21:12:27;20.83;;;13.13;;
13374;SDS011;6756;51.354;15.754;2023-01-08T21:16:28;22.07;;;11.53;;
13374;SDS011;6756;51.354;15.754;2023-01-08T21:20:30;15.77;;;10.20;;
13374;SDS011;6756;51.354;15.754;2023-01-08T21:24:31;18.67;;;11.70;;
13374;SDS011;6756;51.354;15.754;2023-01-08T21:28:32;25.03;;;14.23;;
13374;SDS011;6756;51.354;15.754;2023-01-08T21:32:34;46.40;;;24.63;;
13374;SDS011;6756;51.354;15.754;2023-01-08T21:36:36;43.20;;;22.27;;
13374;SDS011;6756;51.354;15.754;2023-01-08T21:40:38;31.53;;;17.33;;
13374;SDS011;6756;51.354;15.754;2023-01-08T21:44:39;25.53;;;15.03;;
13374;SDS011;6756;51.354;15.754;2023-01-08T21:48:58;21.87;;;13.43;;
13374;SDS011;6756;51.354;15.754;2023-01-08T21:52:59;20.50;;;11.90;;
13374;SDS011;6756;51.354;15.754;2023-01-08T21:57:18;25.17;;;12.57;;
13374;SDS011;6756;51.354;15.754;2023-01-08T22:01:19;23.53;;;13.43;;
13374;SDS011;6756;51.354;15.754;2023-01-08T22:05:20;28.10;;;16.33;;
13374;SDS011;6756;51.354;15.754;2023-01-08T22:09:21;41.93;;;20.67;;
13374;SDS011;6756;51.354;15.754;2023-01-08T22:13:23;40.80;;;22.43;;
13374;SDS011;6756;51.354;15.754;2023-01-08T22:17:24;35.77;;;18.07;;
13374;SDS011;6756;51.354;15.754;2023-01-08T22:21:28;26.10;;;14.90;;
13374;SDS011;6756;51.354;15.754;2023-01-08T22:25:30;22.57;;;12.27;;
13374;SDS011;6756;51.354;15.754;2023-01-08T22:29:31;25.83;;;14.17;;
13374;SDS011;6756;51.354;15.754;2023-01-08T22:33:32;26.47;;;12.67;;
13374;SDS011;6756;51.354;15.754;2023-01-08T22:37:32;19.90;;;10.93;;
13374;SDS011;6756;51.354;15.754;2023-01-08T22:41:35;15.53;;;10.40;;
13374;SDS011;6756;51.354;15.754;2023-01-08T22:45:37;18.30;;;10.43;;
13374;SDS011;6756;51.354;15.754;2023-01-08T22:49:37;27.57;;;12.77;;
13374;SDS011;6756;51.354;15.754;2023-01-08T22:53:38;108.40;;;52.53;;
13374;SDS011;6756;51.354;15.754;2023-01-08T22:57:39;88.67;;;42.47;;
13374;SDS011;6756;51.354;15.754;2023-01-08T23:01:40;145.50;;;66.03;;
13374;SDS011;6756;51.354;15.754;2023-01-08T23:05:41;181.07;;;83.90;;
13374;SDS011;6756;51.354;15.754;2023-01-08T23:09:42;142.57;;;67.87;;
13374;SDS011;6756;51.354;15.754;2023-01-08T23:13:43;60.97;;;30.70;;
13374;SDS011;6756;51.354;15.754;2023-01-08T23:17:45;28.10;;;15.27;;
13374;SDS011;6756;51.354;15.754;2023-01-08T23:21:46;20.40;;;11.20;;
13374;SDS011;6756;51.354;15.754;2023-01-08T23:25:47;18.13;;;10.17;;
13374;SDS011;6756;51.354;15.754;2023-01-08T23:29:47;21.80;;;12.37;;
13374;SDS011;6756;51.354;15.754;2023-01-08T23:33:48;20.17;;;11.87;;
13374;SDS011;6756;51.354;15.754;2023-01-08T23:37:49;24.87;;;13.37;;
13374;SDS011;6756;51.354;15.754;2023-01-08T23:41:51;22.17;;;13.00;;
13374;SDS011;6756;51.354;15.754;2023-01-08T23:45:51;23.93;;;14.27;;
13374;SDS011;6756;51.354;15.754;2023-01-08T23:49:54;23.77;;;13.80;;
13374;SDS011;6756;51.354;15.754;2023-01-08T23:53:55;28.53;;;13.87;;
13374;SDS011;6756;51.354;15.754;2023-01-08T23:57:56;24.30;;;13.40;;
